sensor_id;sensor_type;location;lat;lon;timestamp;temperature;humidity
20200;DHT22;36284;37.236;-121.934;2022-10-16T00:01:22;21.20;99.90
20200;DHT22;36284;37.236;-121.934;2022-10-16T00:03:50;21.00;99.90
20200;DHT22;36284;37.236;-121.934;2022-10-16T00:06:20;20.80;99.90
20200;DHT22;36284;37.236;-121.934;2022-10-16T00:08:47;20.60;99.90
20200;DHT22;36284;37.236;-121.934;2022-10-16T00:11:21;20.50;99.90
20200;DHT22;36284;37.236;-121.934;2022-10-16T00:13:49;20.20;99.90
20200;DHT22;36284;37.236;-121.934;2022-10-16T00:16:17;20.10;99.90
20200;DHT22;36284;37.236;-121.934;2022-10-16T00:18:44;20.00;99.90
20200;DHT22;36284;37.236;-121.934;2022-10-16T00:21:14;19.90;99.90
20200;DHT22;36284;37.236;-121.934;2022-10-16T00:23:42;19.70;99.90
20200;DHT22;36284;37.236;-121.934;2022-10-16T00:26:13;19.60;99.90
20200;DHT22;36284;37.236;-121.934;2022-10-16T00:28:40;19.50;99.90
20200;DHT22;36284;37.236;-121.934;2022-10-16T00:31:11;19.40;99.90
20200;DHT22;36284;37.236;-121.934;2022-10-16T00:33:39;19.30;99.90
20200;DHT22;36284;37.236;-121.934;2022-10-16T00:36:09;19.10;99.90
20200;DHT22;36284;37.236;-121.934;2022-10-16T00:38:36;19.00;99.90
20200;DHT22;36284;37.236;-121.934;2022-10-16T00:41:05;18.90;99.90
20200;DHT22;36284;37.236;-121.934;2022-10-16T00:49:11;18.60;99.90
20200;DHT22;36284;37.236;-121.934;2022-10-16T00:51:42;18.50;99.90
20200;DHT22;36284;37.236;-121.934;2022-10-16T00:54:19;18.30;99.90
20200;DHT22;36284;37.236;-121.934;2022-10-16T00:56:47;18.30;99.90
20200;DHT22;36284;37.236;-121.934;2022-10-16T00:59:27;17.90;99.90
20200;DHT22;36284;37.236;-121.934;2022-10-16T01:01:55;17.70;99.90
20200;DHT22;36284;37.236;-121.934;2022-10-16T01:04:23;17.60;99.90
20200;DHT22;36284;37.236;-121.934;2022-10-16T01:12:33;17.30;99.90
20200;DHT22;36284;37.236;-121.934;2022-10-16T01:15:25;17.20;99.90
20200;DHT22;36284;37.236;-121.934;2022-10-16T01:18:02;17.20;99.90
20200;DHT22;36284;37.236;-121.934;2022-10-16T01:20:40;17.00;99.90
20200;DHT22;36284;37.236;-121.934;2022-10-16T01:31:29;16.80;99.90
20200;DHT22;36284;37.236;-121.934;2022-10-16T01:34:18;16.80;99.90
20200;DHT22;36284;37.236;-121.934;2022-10-16T01:36:55;16.80;99.90
20200;DHT22;36284;37.236;-121.934;2022-10-16T01:39:29;16.70;99.90
20200;DHT22;36284;37.236;-121.934;2022-10-16T01:42:06;16.60;99.90
20200;DHT22;36284;37.236;-121.934;2022-10-16T01:44:36;16.50;99.90
20200;DHT22;36284;37.236;-121.934;2022-10-16T01:47:04;16.50;99.90
20200;DHT22;36284;37.236;-121.934;2022-10-16T01:49:34;16.40;99.90
20200;DHT22;36284;37.236;-121.934;2022-10-16T01:52:09;16.40;99.90
20200;DHT22;36284;37.236;-121.934;2022-10-16T01:54:39;16.30;99.90
20200;DHT22;36284;37.236;-121.934;2022-10-16T01:57:07;16.20;99.90
20200;DHT22;36284;37.236;-121.934;2022-10-16T01:59:40;16.20;99.90
20200;DHT22;36284;37.236;-121.934;2022-10-16T02:02:10;16.20;99.90
20200;DHT22;36284;37.236;-121.934;2022-10-16T02:04:44;16.20;99.90
20200;DHT22;36284;37.236;-121.934;2022-10-16T02:07:12;16.10;99.90
20200;DHT22;36284;37.236;-121.934;2022-10-16T02:09:40;16.10;99.90
20200;DHT22;36284;37.236;-121.934;2022-10-16T02:12:30;16.00;99.90
20200;DHT22;36284;37.236;-121.934;2022-10-16T02:14:58;16.00;99.90
20200;DHT22;36284;37.236;-121.934;2022-10-16T02:17:26;16.00;99.90
20200;DHT22;36284;37.236;-121.934;2022-10-16T02:19:56;16.00;99.90
20200;DHT22;36284;37.236;-121.934;2022-10-16T02:22:27;15.90;99.90
20200;DHT22;36284;37.236;-121.934;2022-10-16T02:24:56;15.90;99.90
20200;DHT22;36284;37.236;-121.934;2022-10-16T02:28:31;15.90;99.90
20200;DHT22;36284;37.236;-121.934;2022-10-16T02:30:46;15.80;99.90
20200;DHT22;36284;37.236;-121.934;2022-10-16T02:33:18;15.80;99.90
20200;DHT22;36284;37.236;-121.934;2022-10-16T02:35:46;15.90;99.90
20200;DHT22;36284;37.236;-121.934;2022-10-16T02:38:15;16.00;99.90
20200;DHT22;36284;37.236;-121.934;2022-10-16T02:40:43;16.20;99.90
20200;DHT22;36284;37.236;-121.934;2022-10-16T02:43:11;16.30;99.90
20200;DHT22;36284;37.236;-121.934;2022-10-16T02:45:38;16.30;99.90
20200;DHT22;36284;37.236;-121.934;2022-10-16T02:48:05;16.50;99.90
20200;DHT22;36284;37.236;-121.934;2022-10-16T02:50:32;16.50;99.90
20200;DHT22;36284;37.236;-121.934;2022-10-16T02:52:59;16.50;99.90
20200;DHT22;36284;37.236;-121.934;2022-10-16T02:55:26;16.50;99.90
20200;DHT22;36284;37.236;-121.934;2022-10-16T02:57:54;16.50;99.90
20200;DHT22;36284;37.236;-121.934;2022-10-16T03:00:21;16.60;99.90
20200;DHT22;36284;37.236;-121.934;2022-10-16T03:02:48;16.60;99.90
20200;DHT22;36284;37.236;-121.934;2022-10-16T03:05:15;16.60;99.90
20200;DHT22;36284;37.236;-121.934;2022-10-16T03:07:42;16.60;99.90
20200;DHT22;36284;37.236;-121.934;2022-10-16T03:10:09;16.60;99.90
20200;DHT22;36284;37.236;-121.934;2022-10-16T03:12:36;16.60;99.90
20200;DHT22;36284;37.236;-121.934;2022-10-16T03:15:03;16.60;99.90
20200;DHT22;36284;37.236;-121.934;2022-10-16T03:17:32;16.60;99.90
20200;DHT22;36284;37.236;-121.934;2022-10-16T03:19:59;16.60;99.90
20200;DHT22;36284;37.236;-121.934;2022-10-16T03:22:26;16.70;99.90
20200;DHT22;36284;37.236;-121.934;2022-10-16T03:24:53;16.60;99.90
20200;DHT22;36284;37.236;-121.934;2022-10-16T03:27:20;16.60;99.90
20200;DHT22;36284;37.236;-121.934;2022-10-16T03:29:47;16.60;99.90
20200;DHT22;36284;37.236;-121.934;2022-10-16T03:32:14;16.60;99.90
20200;DHT22;36284;37.236;-121.934;2022-10-16T03:34:41;16.60;99.90
20200;DHT22;36284;37.236;-121.934;2022-10-16T03:37:08;16.50;99.90
20200;DHT22;36284;37.236;-121.934;2022-10-16T03:39:34;16.50;99.90
20200;DHT22;36284;37.236;-121.934;2022-10-16T03:42:01;16.50;99.90
20200;DHT22;36284;37.236;-121.934;2022-10-16T03:44:28;16.50;99.90
20200;DHT22;36284;37.236;-121.934;2022-10-16T03:46:55;16.50;99.90
20200;DHT22;36284;37.236;-121.934;2022-10-16T03:49:22;16.40;99.90
20200;DHT22;36284;37.236;-121.934;2022-10-16T03:51:49;16.40;99.90
20200;DHT22;36284;37.236;-121.934;2022-10-16T03:54:16;16.40;99.90
20200;DHT22;36284;37.236;-121.934;2022-10-16T03:56:43;16.40;99.90
20200;DHT22;36284;37.236;-121.934;2022-10-16T03:59:10;16.40;99.90
20200;DHT22;36284;37.236;-121.934;2022-10-16T04:01:37;16.40;99.90
20200;DHT22;36284;37.236;-121.934;2022-10-16T04:04:04;16.40;99.90
20200;DHT22;36284;37.236;-121.934;2022-10-16T04:06:30;16.40;99.90
20200;DHT22;36284;37.236;-121.934;2022-10-16T04:08:57;16.40;99.90
20200;DHT22;36284;37.236;-121.934;2022-10-16T04:11:24;16.50;99.90
20200;DHT22;36284;37.236;-121.934;2022-10-16T04:13:51;16.50;99.90
20200;DHT22;36284;37.236;-121.934;2022-10-16T04:16:18;16.50;99.90
20200;DHT22;36284;37.236;-121.934;2022-10-16T04:18:45;16.50;99.90
20200;DHT22;36284;37.236;-121.934;2022-10-16T04:21:12;16.50;99.90
20200;DHT22;36284;37.236;-121.934;2022-10-16T04:23:39;16.50;99.90
20200;DHT22;36284;37.236;-121.934;2022-10-16T04:26:05;16.50;99.90
20200;DHT22;36284;37.236;-121.934;2022-10-16T04:28:32;16.50;99.90
20200;DHT22;36284;37.236;-121.934;2022-10-16T04:30:59;16.50;99.90
20200;DHT22;36284;37.236;-121.934;2022-10-16T04:33:26;16.50;99.90
20200;DHT22;36284;37.236;-121.934;2022-10-16T04:35:57;16.50;99.90
20200;DHT22;36284;37.236;-121.934;2022-10-16T04:38:24;16.50;99.90
20200;DHT22;36284;37.236;-121.934;2022-10-16T04:40:52;16.50;99.90
20200;DHT22;36284;37.236;-121.934;2022-10-16T04:43:21;16.50;99.90
20200;DHT22;36284;37.236;-121.934;2022-10-16T04:45:48;16.40;99.90
20200;DHT22;36284;37.236;-121.934;2022-10-16T04:48:18;16.40;99.90
20200;DHT22;36284;37.236;-121.934;2022-10-16T04:50:45;16.40;99.90
20200;DHT22;36284;37.236;-121.934;2022-10-16T04:53:12;16.50;99.90
20200;DHT22;36284;37.236;-121.934;2022-10-16T04:55:39;16.50;99.90
20200;DHT22;36284;37.236;-121.934;2022-10-16T04:58:06;16.50;99.90
20200;DHT22;36284;37.236;-121.934;2022-10-16T05:00:33;16.50;99.90
20200;DHT22;36284;37.236;-121.934;2022-10-16T05:03:00;16.50;99.90
20200;DHT22;36284;37.236;-121.934;2022-10-16T05:05:28;16.50;99.90
20200;DHT22;36284;37.236;-121.934;2022-10-16T05:07:54;16.50;99.90
20200;DHT22;36284;37.236;-121.934;2022-10-16T05:10:21;16.40;99.90
20200;DHT22;36284;37.236;-121.934;2022-10-16T05:12:48;16.40;99.90
20200;DHT22;36284;37.236;-121.934;2022-10-16T05:15:16;16.40;99.90
20200;DHT22;36284;37.236;-121.934;2022-10-16T05:17:43;16.40;99.90
20200;DHT22;36284;37.236;-121.934;2022-10-16T05:20:10;16.40;99.90
20200;DHT22;36284;37.236;-121.934;2022-10-16T05:22:37;16.40;99.90
20200;DHT22;36284;37.236;-121.934;2022-10-16T05:25:04;16.40;99.90
20200;DHT22;36284;37.236;-121.934;2022-10-16T05:27:31;16.40;99.90
20200;DHT22;36284;37.236;-121.934;2022-10-16T05:29:58;16.30;99.90
20200;DHT22;36284;37.236;-121.934;2022-10-16T05:32:25;16.30;99.90
20200;DHT22;36284;37.236;-121.934;2022-10-16T05:34:52;16.30;99.90
20200;DHT22;36284;37.236;-121.934;2022-10-16T05:37:19;16.30;99.90
20200;DHT22;36284;37.236;-121.934;2022-10-16T05:39:46;16.30;99.90
20200;DHT22;36284;37.236;-121.934;2022-10-16T05:42:13;16.30;99.90
20200;DHT22;36284;37.236;-121.934;2022-10-16T05:44:40;16.20;99.90
20200;DHT22;36284;37.236;-121.934;2022-10-16T05:47:07;16.10;99.90
20200;DHT22;36284;37.236;-121.934;2022-10-16T05:49:34;16.20;99.90
20200;DHT22;36284;37.236;-121.934;2022-10-16T05:52:01;16.20;99.90
20200;DHT22;36284;37.236;-121.934;2022-10-16T05:54:28;16.10;99.90
20200;DHT22;36284;37.236;-121.934;2022-10-16T05:56:55;16.10;99.90
20200;DHT22;36284;37.236;-121.934;2022-10-16T05:59:22;16.10;99.90
20200;DHT22;36284;37.236;-121.934;2022-10-16T06:01:48;16.10;99.90
20200;DHT22;36284;37.236;-121.934;2022-10-16T06:04:15;16.10;99.90
20200;DHT22;36284;37.236;-121.934;2022-10-16T06:06:42;16.10;99.90
20200;DHT22;36284;37.236;-121.934;2022-10-16T06:09:10;16.10;99.90
20200;DHT22;36284;37.236;-121.934;2022-10-16T06:11:37;16.10;99.90
20200;DHT22;36284;37.236;-121.934;2022-10-16T06:14:03;16.00;99.90
20200;DHT22;36284;37.236;-121.934;2022-10-16T06:16:34;16.00;99.90
20200;DHT22;36284;37.236;-121.934;2022-10-16T06:19:02;16.00;99.90
20200;DHT22;36284;37.236;-121.934;2022-10-16T06:21:30;15.90;99.90
20200;DHT22;36284;37.236;-121.934;2022-10-16T06:23:58;15.90;99.90
20200;DHT22;36284;37.236;-121.934;2022-10-16T06:26:26;15.90;99.90
20200;DHT22;36284;37.236;-121.934;2022-10-16T06:28:56;15.80;99.90
20200;DHT22;36284;37.236;-121.934;2022-10-16T06:31:23;15.70;99.90
20200;DHT22;36284;37.236;-121.934;2022-10-16T06:33:54;15.70;99.90
20200;DHT22;36284;37.236;-121.934;2022-10-16T06:36:21;15.80;99.90
20200;DHT22;36284;37.236;-121.934;2022-10-16T06:38:48;15.80;99.90
20200;DHT22;36284;37.236;-121.934;2022-10-16T06:41:18;15.70;99.90
20200;DHT22;36284;37.236;-121.934;2022-10-16T06:43:45;15.70;99.90
20200;DHT22;36284;37.236;-121.934;2022-10-16T06:46:14;15.80;99.90
20200;DHT22;36284;37.236;-121.934;2022-10-16T06:48:41;15.80;99.90
20200;DHT22;36284;37.236;-121.934;2022-10-16T06:51:10;15.80;99.90
20200;DHT22;36284;37.236;-121.934;2022-10-16T06:53:42;15.80;99.90
20200;DHT22;36284;37.236;-121.934;2022-10-16T06:56:15;15.90;99.90
20200;DHT22;36284;37.236;-121.934;2022-10-16T06:58:42;15.80;99.90
20200;DHT22;36284;37.236;-121.934;2022-10-16T07:01:10;15.80;99.90
20200;DHT22;36284;37.236;-121.934;2022-10-16T07:03:41;15.80;99.90
20200;DHT22;36284;37.236;-121.934;2022-10-16T07:06:11;15.90;99.90
20200;DHT22;36284;37.236;-121.934;2022-10-16T07:08:40;15.80;99.90
20200;DHT22;36284;37.236;-121.934;2022-10-16T07:11:10;15.80;99.90
20200;DHT22;36284;37.236;-121.934;2022-10-16T07:13:39;15.90;99.90
20200;DHT22;36284;37.236;-121.934;2022-10-16T07:16:14;15.80;99.90
20200;DHT22;36284;37.236;-121.934;2022-10-16T07:18:42;15.80;99.90
20200;DHT22;36284;37.236;-121.934;2022-10-16T07:21:14;15.80;99.90
20200;DHT22;36284;37.236;-121.934;2022-10-16T07:23:42;15.80;99.90
20200;DHT22;36284;37.236;-121.934;2022-10-16T07:26:09;15.80;99.90
20200;DHT22;36284;37.236;-121.934;2022-10-16T07:28:37;15.80;99.90
20200;DHT22;36284;37.236;-121.934;2022-10-16T07:31:09;15.80;99.90
20200;DHT22;36284;37.236;-121.934;2022-10-16T07:33:38;15.80;99.90
20200;DHT22;36284;37.236;-121.934;2022-10-16T07:36:06;15.80;99.90
20200;DHT22;36284;37.236;-121.934;2022-10-16T07:38:33;15.80;99.90
20200;DHT22;36284;37.236;-121.934;2022-10-16T07:41:06;15.80;99.90
20200;DHT22;36284;37.236;-121.934;2022-10-16T07:43:33;15.70;99.90
20200;DHT22;36284;37.236;-121.934;2022-10-16T07:46:02;15.70;99.90
20200;DHT22;36284;37.236;-121.934;2022-10-16T07:48:31;15.70;99.90
20200;DHT22;36284;37.236;-121.934;2022-10-16T07:51:03;15.70;99.90
20200;DHT22;36284;37.236;-121.934;2022-10-16T07:53:31;15.70;99.90
20200;DHT22;36284;37.236;-121.934;2022-10-16T07:56:03;15.70;99.90
20200;DHT22;36284;37.236;-121.934;2022-10-16T07:58:29;15.70;99.90
20200;DHT22;36284;37.236;-121.934;2022-10-16T08:00:56;15.70;99.90
20200;DHT22;36284;37.236;-121.934;2022-10-16T08:03:23;15.70;99.90
20200;DHT22;36284;37.236;-121.934;2022-10-16T08:05:50;15.70;99.90
20200;DHT22;36284;37.236;-121.934;2022-10-16T08:08:17;15.70;99.90
20200;DHT22;36284;37.236;-121.934;2022-10-16T08:10:44;15.60;99.90
20200;DHT22;36284;37.236;-121.934;2022-10-16T08:13:11;15.60;99.90
20200;DHT22;36284;37.236;-121.934;2022-10-16T08:15:38;15.70;99.90
20200;DHT22;36284;37.236;-121.934;2022-10-16T08:18:05;15.70;99.90
20200;DHT22;36284;37.236;-121.934;2022-10-16T08:20:31;15.70;99.90
20200;DHT22;36284;37.236;-121.934;2022-10-16T08:23:01;15.70;99.90
20200;DHT22;36284;37.236;-121.934;2022-10-16T08:25:28;15.70;99.90
20200;DHT22;36284;37.236;-121.934;2022-10-16T08:27:56;15.70;99.90
20200;DHT22;36284;37.236;-121.934;2022-10-16T08:30:24;15.70;99.90
20200;DHT22;36284;37.236;-121.934;2022-10-16T08:32:51;15.70;99.90
20200;DHT22;36284;37.236;-121.934;2022-10-16T08:35:18;15.70;99.90
20200;DHT22;36284;37.236;-121.934;2022-10-16T08:37:44;15.70;99.90
20200;DHT22;36284;37.236;-121.934;2022-10-16T08:40:18;15.70;99.90
20200;DHT22;36284;37.236;-121.934;2022-10-16T08:48:30;15.70;99.90
20200;DHT22;36284;37.236;-121.934;2022-10-16T08:51:02;15.70;99.90
20200;DHT22;36284;37.236;-121.934;2022-10-16T08:53:54;15.80;99.90
20200;DHT22;36284;37.236;-121.934;2022-10-16T08:56:21;15.80;99.90
20200;DHT22;36284;37.236;-121.934;2022-10-16T08:58:49;15.70;99.90
20200;DHT22;36284;37.236;-121.934;2022-10-16T09:01:18;15.70;99.90
20200;DHT22;36284;37.236;-121.934;2022-10-16T09:06:50;15.70;99.90
20200;DHT22;36284;37.236;-121.934;2022-10-16T09:12:26;15.70;99.90
20200;DHT22;36284;37.236;-121.934;2022-10-16T09:23:32;15.70;99.90
20200;DHT22;36284;37.236;-121.934;2022-10-16T09:26:00;15.70;99.90
20200;DHT22;36284;37.236;-121.934;2022-10-16T09:28:28;15.70;99.90
20200;DHT22;36284;37.236;-121.934;2022-10-16T09:30:55;15.70;99.90
20200;DHT22;36284;37.236;-121.934;2022-10-16T09:33:35;15.70;99.90
20200;DHT22;36284;37.236;-121.934;2022-10-16T09:36:05;15.70;99.90
20200;DHT22;36284;37.236;-121.934;2022-10-16T09:38:35;15.60;99.90
20200;DHT22;36284;37.236;-121.934;2022-10-16T09:43:47;15.60;99.90
20200;DHT22;36284;37.236;-121.934;2022-10-16T09:46:21;15.70;99.90
20200;DHT22;36284;37.236;-121.934;2022-10-16T09:48:49;15.70;99.90
20200;DHT22;36284;37.236;-121.934;2022-10-16T09:51:26;15.70;99.90
20200;DHT22;36284;37.236;-121.934;2022-10-16T09:54:00;15.70;99.90
20200;DHT22;36284;37.236;-121.934;2022-10-16T09:58:54;15.70;99.90
20200;DHT22;36284;37.236;-121.934;2022-10-16T10:01:22;15.70;99.90
20200;DHT22;36284;37.236;-121.934;2022-10-16T10:03:50;15.70;99.90
20200;DHT22;36284;37.236;-121.934;2022-10-16T10:08:58;15.70;99.90
20200;DHT22;36284;37.236;-121.934;2022-10-16T10:11:39;15.70;99.90
20200;DHT22;36284;37.236;-121.934;2022-10-16T10:16:49;15.70;99.90
20200;DHT22;36284;37.236;-121.934;2022-10-16T10:19:21;15.70;99.90
20200;DHT22;36284;37.236;-121.934;2022-10-16T10:21:50;15.80;99.90
20200;DHT22;36284;37.236;-121.934;2022-10-16T10:24:19;15.70;99.90
20200;DHT22;36284;37.236;-121.934;2022-10-16T10:26:51;15.70;99.90
20200;DHT22;36284;37.236;-121.934;2022-10-16T10:40:52;15.80;99.90
20200;DHT22;36284;37.236;-121.934;2022-10-16T10:43:30;15.80;99.90
20200;DHT22;36284;37.236;-121.934;2022-10-16T10:46:04;15.80;99.90
20200;DHT22;36284;37.236;-121.934;2022-10-16T10:49:00;15.90;99.90
20200;DHT22;36284;37.236;-121.934;2022-10-16T10:57:38;15.80;99.90
20200;DHT22;36284;37.236;-121.934;2022-10-16T11:00:49;15.80;99.90
20200;DHT22;36284;37.236;-121.934;2022-10-16T11:03:24;15.80;99.90
20200;DHT22;36284;37.236;-121.934;2022-10-16T11:06:01;15.80;99.90
20200;DHT22;36284;37.236;-121.934;2022-10-16T11:08:39;15.80;99.90
20200;DHT22;36284;37.236;-121.934;2022-10-16T11:11:30;15.80;99.90
20200;DHT22;36284;37.236;-121.934;2022-10-16T11:19:37;15.90;99.90
20200;DHT22;36284;37.236;-121.934;2022-10-16T11:22:19;15.90;99.90
20200;DHT22;36284;37.236;-121.934;2022-10-16T11:25:02;15.90;99.90
20200;DHT22;36284;37.236;-121.934;2022-10-16T11:27:43;15.90;99.90
20200;DHT22;36284;37.236;-121.934;2022-10-16T11:30:23;15.90;99.90
20200;DHT22;36284;37.236;-121.934;2022-10-16T11:33:04;15.90;99.90
20200;DHT22;36284;37.236;-121.934;2022-10-16T11:35:54;15.90;99.90
20200;DHT22;36284;37.236;-121.934;2022-10-16T11:41:09;15.90;99.90
20200;DHT22;36284;37.236;-121.934;2022-10-16T11:43:43;15.90;99.90
20200;DHT22;36284;37.236;-121.934;2022-10-16T11:46:17;15.90;99.90
20200;DHT22;36284;37.236;-121.934;2022-10-16T11:56:57;15.90;99.90
20200;DHT22;36284;37.236;-121.934;2022-10-16T12:02:31;15.90;99.90
20200;DHT22;36284;37.236;-121.934;2022-10-16T12:05:21;15.90;99.90
20200;DHT22;36284;37.236;-121.934;2022-10-16T12:08:10;15.90;99.90
20200;DHT22;36284;37.236;-121.934;2022-10-16T12:10:40;15.90;99.90
20200;DHT22;36284;37.236;-121.934;2022-10-16T12:18:33;15.90;99.90
20200;DHT22;36284;37.236;-121.934;2022-10-16T12:21:00;15.90;99.90
20200;DHT22;36284;37.236;-121.934;2022-10-16T12:23:38;16.00;99.90
20200;DHT22;36284;37.236;-121.934;2022-10-16T12:26:06;15.90;99.90
20200;DHT22;36284;37.236;-121.934;2022-10-16T12:28:33;15.90;99.90
20200;DHT22;36284;37.236;-121.934;2022-10-16T12:31:01;15.90;99.90
20200;DHT22;36284;37.236;-121.934;2022-10-16T12:33:30;16.00;99.90
20200;DHT22;36284;37.236;-121.934;2022-10-16T12:36:00;15.90;99.90
20200;DHT22;36284;37.236;-121.934;2022-10-16T12:38:44;15.90;99.90
20200;DHT22;36284;37.236;-121.934;2022-10-16T12:41:12;15.90;99.90
20200;DHT22;36284;37.236;-121.934;2022-10-16T12:43:43;16.00;99.90
20200;DHT22;36284;37.236;-121.934;2022-10-16T12:48:38;15.90;99.90
20200;DHT22;36284;37.236;-121.934;2022-10-16T12:51:25;16.00;99.90
20200;DHT22;36284;37.236;-121.934;2022-10-16T12:54:14;15.90;99.90
20200;DHT22;36284;37.236;-121.934;2022-10-16T12:56:58;15.90;99.90
20200;DHT22;36284;37.236;-121.934;2022-10-16T13:07:23;15.90;99.90
20200;DHT22;36284;37.236;-121.934;2022-10-16T13:21:08;16.00;99.90
20200;DHT22;36284;37.236;-121.934;2022-10-16T13:29:21;16.00;99.90
20200;DHT22;36284;37.236;-121.934;2022-10-16T13:31:49;16.00;99.90
20200;DHT22;36284;37.236;-121.934;2022-10-16T13:34:19;16.00;99.90
20200;DHT22;36284;37.236;-121.934;2022-10-16T13:36:50;16.00;99.90
20200;DHT22;36284;37.236;-121.934;2022-10-16T13:39:25;16.00;99.90
20200;DHT22;36284;37.236;-121.934;2022-10-16T13:42:07;16.00;99.90
20200;DHT22;36284;37.236;-121.934;2022-10-16T13:44:43;16.00;99.90
20200;DHT22;36284;37.236;-121.934;2022-10-16T13:47:22;16.00;99.90
20200;DHT22;36284;37.236;-121.934;2022-10-16T13:50:09;16.00;99.90
20200;DHT22;36284;37.236;-121.934;2022-10-16T13:52:37;15.90;99.90
20200;DHT22;36284;37.236;-121.934;2022-10-16T13:55:14;15.90;99.90
20200;DHT22;36284;37.236;-121.934;2022-10-16T13:57:42;16.00;99.90
20200;DHT22;36284;37.236;-121.934;2022-10-16T14:00:20;15.90;99.90
20200;DHT22;36284;37.236;-121.934;2022-10-16T14:02:55;15.90;99.90
20200;DHT22;36284;37.236;-121.934;2022-10-16T14:05:24;15.90;99.90
20200;DHT22;36284;37.236;-121.934;2022-10-16T14:07:52;15.90;99.90
20200;DHT22;36284;37.236;-121.934;2022-10-16T14:10:30;15.80;99.90
20200;DHT22;36284;37.236;-121.934;2022-10-16T14:13:05;15.90;99.90
20200;DHT22;36284;37.236;-121.934;2022-10-16T14:15:35;15.90;99.90
20200;DHT22;36284;37.236;-121.934;2022-10-16T14:18:03;15.90;99.90
20200;DHT22;36284;37.236;-121.934;2022-10-16T14:20:33;15.80;99.90
20200;DHT22;36284;37.236;-121.934;2022-10-16T14:23:29;15.90;99.90
20200;DHT22;36284;37.236;-121.934;2022-10-16T14:28:38;15.90;99.90
20200;DHT22;36284;37.236;-121.934;2022-10-16T14:31:28;15.90;99.90
20200;DHT22;36284;37.236;-121.934;2022-10-16T14:33:55;15.90;99.90
20200;DHT22;36284;37.236;-121.934;2022-10-16T14:36:23;15.90;99.90
20200;DHT22;36284;37.236;-121.934;2022-10-16T14:39:13;16.00;99.90
20200;DHT22;36284;37.236;-121.934;2022-10-16T14:41:48;15.90;99.90
20200;DHT22;36284;37.236;-121.934;2022-10-16T14:44:18;15.90;99.90
20200;DHT22;36284;37.236;-121.934;2022-10-16T14:46:46;16.00;99.90
20200;DHT22;36284;37.236;-121.934;2022-10-16T14:49:20;16.00;99.90
20200;DHT22;36284;37.236;-121.934;2022-10-16T14:51:48;16.00;99.90
20200;DHT22;36284;37.236;-121.934;2022-10-16T14:54:17;16.00;99.90
20200;DHT22;36284;37.236;-121.934;2022-10-16T14:56:53;16.00;99.90
20200;DHT22;36284;37.236;-121.934;2022-10-16T14:59:32;16.10;99.90
20200;DHT22;36284;37.236;-121.934;2022-10-16T15:02:02;16.10;99.90
20200;DHT22;36284;37.236;-121.934;2022-10-16T15:04:35;16.10;99.90
20200;DHT22;36284;37.236;-121.934;2022-10-16T15:07:02;16.10;99.90
20200;DHT22;36284;37.236;-121.934;2022-10-16T15:09:29;16.20;99.90
20200;DHT22;36284;37.236;-121.934;2022-10-16T15:11:56;16.20;99.90
20200;DHT22;36284;37.236;-121.934;2022-10-16T15:14:23;16.30;99.90
20200;DHT22;36284;37.236;-121.934;2022-10-16T15:16:50;16.30;99.90
20200;DHT22;36284;37.236;-121.934;2022-10-16T15:19:17;16.30;99.90
20200;DHT22;36284;37.236;-121.934;2022-10-16T15:21:44;16.30;99.90
20200;DHT22;36284;37.236;-121.934;2022-10-16T15:24:14;16.50;99.90
20200;DHT22;36284;37.236;-121.934;2022-10-16T15:26:41;16.50;99.90
20200;DHT22;36284;37.236;-121.934;2022-10-16T15:29:08;16.60;99.90
20200;DHT22;36284;37.236;-121.934;2022-10-16T15:31:35;16.60;99.90
20200;DHT22;36284;37.236;-121.934;2022-10-16T15:34:04;16.60;99.90
20200;DHT22;36284;37.236;-121.934;2022-10-16T15:36:34;16.60;99.90
20200;DHT22;36284;37.236;-121.934;2022-10-16T15:39:04;16.70;99.90
20200;DHT22;36284;37.236;-121.934;2022-10-16T15:41:30;16.70;99.90
20200;DHT22;36284;37.236;-121.934;2022-10-16T15:43:57;16.80;99.90
20200;DHT22;36284;37.236;-121.934;2022-10-16T15:46:25;16.90;99.90
20200;DHT22;36284;37.236;-121.934;2022-10-16T15:48:56;17.00;99.90
20200;DHT22;36284;37.236;-121.934;2022-10-16T15:51:23;17.00;99.90
20200;DHT22;36284;37.236;-121.934;2022-10-16T15:53:50;17.00;99.90
20200;DHT22;36284;37.236;-121.934;2022-10-16T15:56:19;17.00;99.90
20200;DHT22;36284;37.236;-121.934;2022-10-16T15:58:46;17.10;99.90
20200;DHT22;36284;37.236;-121.934;2022-10-16T16:01:12;17.20;99.90
20200;DHT22;36284;37.236;-121.934;2022-10-16T16:03:39;17.30;99.90
20200;DHT22;36284;37.236;-121.934;2022-10-16T16:06:09;17.40;99.90
20200;DHT22;36284;37.236;-121.934;2022-10-16T16:08:37;17.30;99.90
20200;DHT22;36284;37.236;-121.934;2022-10-16T16:11:10;17.40;99.90
20200;DHT22;36284;37.236;-121.934;2022-10-16T16:13:37;17.40;99.90
20200;DHT22;36284;37.236;-121.934;2022-10-16T16:16:12;17.50;99.90
20200;DHT22;36284;37.236;-121.934;2022-10-16T16:18:40;17.60;99.90
20200;DHT22;36284;37.236;-121.934;2022-10-16T16:21:07;17.60;99.90
20200;DHT22;36284;37.236;-121.934;2022-10-16T16:23:35;17.80;99.90
20200;DHT22;36284;37.236;-121.934;2022-10-16T16:26:06;17.80;99.90
20200;DHT22;36284;37.236;-121.934;2022-10-16T16:28:34;17.90;99.90
20200;DHT22;36284;37.236;-121.934;2022-10-16T16:31:01;18.00;99.90
20200;DHT22;36284;37.236;-121.934;2022-10-16T16:33:28;18.10;99.90
20200;DHT22;36284;37.236;-121.934;2022-10-16T16:36:02;18.10;99.90
20200;DHT22;36284;37.236;-121.934;2022-10-16T16:38:29;18.20;99.90
20200;DHT22;36284;37.236;-121.934;2022-10-16T16:40:56;18.30;99.90
20200;DHT22;36284;37.236;-121.934;2022-10-16T16:43:27;18.30;99.90
20200;DHT22;36284;37.236;-121.934;2022-10-16T16:45:54;18.20;99.90
20200;DHT22;36284;37.236;-121.934;2022-10-16T16:48:21;18.10;99.90
20200;DHT22;36284;37.236;-121.934;2022-10-16T16:50:48;18.10;99.90
20200;DHT22;36284;37.236;-121.934;2022-10-16T16:53:15;18.10;99.90
20200;DHT22;36284;37.236;-121.934;2022-10-16T16:55:42;18.10;99.90
20200;DHT22;36284;37.236;-121.934;2022-10-16T16:58:09;18.20;99.90
20200;DHT22;36284;37.236;-121.934;2022-10-16T17:00:36;18.10;99.90
20200;DHT22;36284;37.236;-121.934;2022-10-16T17:03:03;18.30;99.90
20200;DHT22;36284;37.236;-121.934;2022-10-16T17:05:30;18.20;99.90
20200;DHT22;36284;37.236;-121.934;2022-10-16T17:07:57;18.30;99.90
20200;DHT22;36284;37.236;-121.934;2022-10-16T17:10:23;18.20;99.90